Time;durP1;ratioP1;P1;durP2;ratioP2;P2;SDS_P1;SDS_P2;PMS_P1;PMS_P2;Temp;Humidity;BMP_temperature;BMP_pressure;BME280_temperature;BME280_humidity;BME280_pressure;Samples;Min_cycle;Max_cycle;Signal;HPM_P1;HPM_P2
2023/07/27 00:00:35;;;;;;;0.20;0.20;;;;;;;;;;6201589;22;20012;-87
2023/07/27 00:03:02;;;;;;;0.30;0.30;;;;;;;;;;6206729;23;20021;-85
2023/07/27 00:05:43;;;;;;;0.10;0.10;;;;;;;;;;6279232;22;20473;-84
2023/07/27 00:08:09;;;;;;;0.20;0.20;;;;;;;;;;6206058;22;20021;-85
2023/07/27 00:10:37;;;;;;;0.22;0.22;;;;;;;;;;6207406;22;20068;-85
2023/07/27 00:13:07;;;;;;;0.10;0.10;;;;;;;;;;6206088;22;20042;-86
2023/07/27 00:15:34;;;;;;;0.20;0.20;;;;;;;;;;6204040;22;20023;-86
2023/07/27 00:18:00;;;;;;;0.20;0.20;;;;;;;;;;6199919;22;20021;-87
2023/07/27 00:20:30;;;;;;;0.20;0.20;;;;;;;;;;6203906;22;20443;-85
2023/07/27 00:23:00;;;;;;;0.15;0.15;;;;;;;;;;6212605;22;20025;-86
2023/07/27 00:30:42;;;;;;;0.20;0.20;;;;;;;;;;6225780;22;20032;-86
2023/07/27 00:33:08;;;;;;;0.20;0.20;;;;;;;;;;6336115;22;20069;-86
2023/07/27 00:35:40;;;;;;;0.10;0.10;;;;;;;;;;6236702;22;20020;-84
2023/07/27 00:38:09;;;;;;;0.30;0.30;;;;;;;;;;6211272;23;20017;-85
2023/07/27 00:40:40;;;;;;;0.20;0.20;;;;;;;;;;6236669;22;20020;-84
2023/07/27 00:43:06;;;;;;;0.13;0.13;;;;;;;;;;6201104;23;20451;-86
2023/07/27 00:45:33;;;;;;;0.20;0.20;;;;;;;;;;6209325;23;20026;-84
2023/07/27 00:48:09;;;;;;;0.08;0.08;;;;;;;;;;6337779;22;20035;-94
2023/07/27 00:53:47;;;;;;;0.30;0.30;;;;;;;;;;6238662;22;20016;-94
2023/07/27 00:56:32;;;;;;;0.10;0.10;;;;;;;;;;6306854;22;20057;-95
2023/07/27 00:59:10;;;;;;;0.10;0.10;;;;;;;;;;6236539;22;20016;-93
2023/07/27 01:02:02;;;;;;;0.10;0.10;;;;;;;;;;6240113;22;20064;-93
2023/07/27 01:04:44;;;;;;;0.20;0.20;;;;;;;;;;6215025;22;20020;-92
2023/07/27 01:07:52;;;;;;;0.30;0.30;;;;;;;;;;6239774;22;20038;-93
2023/07/27 01:26:12;;;;;;;0.22;0.22;;;;;;;;;;6237879;22;20020;-91
2023/07/27 01:29:06;;;;;;;0.17;0.17;;;;;;;;;;6237426;22;20078;-94
2023/07/27 01:32:02;;;;;;;0.20;0.20;;;;;;;;;;6269031;22;20000;-92
2023/07/27 01:34:46;;;;;;;0.20;0.20;;;;;;;;;;6243053;22;20008;-93
2023/07/27 01:37:35;;;;;;;0.17;0.17;;;;;;;;;;6269023;22;20041;-92
2023/07/27 01:40:17;;;;;;;0.10;0.10;;;;;;;;;;6271171;22;20395;-95
2023/07/27 01:42:57;;;;;;;0.10;0.10;;;;;;;;;;6245454;22;20008;-90
2023/07/27 01:45:31;;;;;;;0.10;0.10;;;;;;;;;;6243707;22;20016;-93
2023/07/27 01:48:09;;;;;;;0.10;0.10;;;;;;;;;;6267579;22;20041;-95
2023/07/27 01:51:12;;;;;;;0.20;0.20;;;;;;;;;;6233053;22;20023;-92
2023/07/27 01:53:42;;;;;;;0.10;0.10;;;;;;;;;;6324736;22;20007;-91
2023/07/27 01:56:15;;;;;;;0.20;0.20;;;;;;;;;;6299166;22;20030;-94
2023/07/27 01:59:02;;;;;;;0.22;0.22;;;;;;;;;;6274608;22;20033;-94
2023/07/27 02:01:52;;;;;;;0.20;0.20;;;;;;;;;;6246757;22;20004;-93
2023/07/27 02:14:55;;;;;;;0.10;0.10;;;;;;;;;;6212419;22;20254;-92
2023/07/27 02:26:39;;;;;;;0.17;0.17;;;;;;;;;;6197430;22;20024;-92
2023/07/27 02:29:11;;;;;;;0.15;0.15;;;;;;;;;;6216881;22;20034;-94
2023/07/27 02:31:38;;;;;;;0.10;0.10;;;;;;;;;;6218884;22;20004;-92
2023/07/27 02:34:17;;;;;;;0.10;0.10;;;;;;;;;;6243224;22;20012;-93
2023/07/27 02:39:19;;;;;;;0.20;0.20;;;;;;;;;;6283166;22;20008;-96
2023/07/27 02:48:09;;;;;;;0.20;0.20;;;;;;;;;;6222649;22;20011;-91
2023/07/27 04:02:36;;;;;;;;;;;;;;;;;;;;;
2023/07/27 04:05:13;;;;;;;0.30;0.30;;;;;;;;;;6364584;22;20028;-87
2023/07/27 04:07:42;;;;;;;0.20;0.20;;;;;;;;;;6208875;22;20025;-86
2023/07/27 04:10:10;;;;;;;0.20;0.20;;;;;;;;;;6210472;22;20024;-92
2023/07/27 05:04:32;;;;;;;0.20;0.20;;;;;;;;;;6204994;22;20072;-94
2023/07/27 05:46:04;;;;;;;0.30;0.30;;;;;;;;;;6177600;22;20037;-88
2023/07/27 05:52:22;;;;;;;0.28;0.28;;;;;;;;;;6247035;23;20004;-88
2023/07/27 07:12:06;;;;;;;0.20;0.20;;;;;;;;;;6253793;22;20004;-90
2023/07/27 07:27:40;;;;;;;0.25;0.25;;;;;;;;;;6259286;22;20066;-88
2023/07/27 07:30:45;;;;;;;0.20;0.20;;;;;;;;;;6239477;23;20024;-90
2023/07/27 07:33:17;;;;;;;0.20;0.20;;;;;;;;;;6242182;23;20016;-88
2023/07/27 07:35:44;;;;;;;0.20;0.20;;;;;;;;;;6216470;23;20000;-86
2023/07/27 07:38:18;;;;;;;0.20;0.20;;;;;;;;;;6215567;23;20076;-89
2023/07/27 07:43:56;;;;;;;0.20;0.20;;;;;;;;;;6238254;22;20035;-88
2023/07/27 07:46:46;;;;;;;0.10;0.10;;;;;;;;;;6215227;23;20000;-88
2023/07/27 07:49:43;;;;;;;0.20;0.20;;;;;;;;;;6216994;23;20015;-87
2023/07/27 07:52:14;;;;;;;0.10;0.10;;;;;;;;;;6242762;22;20047;-88
2023/07/27 07:54:41;;;;;;;0.20;0.20;;;;;;;;;;6243372;22;20031;-87
2023/07/27 07:57:27;;;;;;;0.10;0.10;;;;;;;;;;6248858;22;20018;-89
2023/07/27 08:03:16;;;;;;;0.10;0.10;;;;;;;;;;6169276;22;20923;-90
2023/07/27 08:05:51;;;;;;;0.20;0.20;;;;;;;;;;6211970;22;20009;-90
2023/07/27 08:08:35;;;;;;;0.20;0.20;;;;;;;;;;6246814;22;20008;-90
2023/07/27 08:40:36;;;;;;;0.20;0.20;;;;;;;;;;6187989;23;20008;-89
2023/07/27 08:53:27;;;;;;;0.20;0.20;;;;;;;;;;6199275;22;20021;-90
2023/07/27 08:56:11;;;;;;;0.10;0.10;;;;;;;;;;6265540;22;20000;-90
2023/07/27 09:02:09;;;;;;;0.20;0.20;;;;;;;;;;6279753;22;20054;-90
2023/07/27 09:04:46;;;;;;;0.20;0.20;;;;;;;;;;6243641;23;20016;-89
2023/07/27 09:07:15;;;;;;;0.30;0.30;;;;;;;;;;6219980;23;20000;-91
2023/07/27 09:10:19;;;;;;;0.10;0.10;;;;;;;;;;6269354;22;20024;-90
2023/07/27 09:12:47;;;;;;;0.10;0.10;;;;;;;;;;6243278;22;20019;-88
2023/07/27 09:15:17;;;;;;;0.08;0.08;;;;;;;;;;6243408;22;20035;-89
2023/07/27 09:17:58;;;;;;;0.20;0.20;;;;;;;;;;6242116;23;20000;-91
2023/07/27 09:20:46;;;;;;;0.20;0.20;;;;;;;;;;6245345;22;20028;-91
2023/07/27 09:29:25;;;;;;;0.13;0.13;;;;;;;;;;6266530;22;20011;-90
2023/07/27 09:35:06;;;;;;;0.10;0.10;;;;;;;;;;6242836;22;20023;-93
2023/07/27 09:37:58;;;;;;;0.20;0.20;;;;;;;;;;6213776;22;20005;-92
2023/07/27 09:51:14;;;;;;;0.10;0.10;;;;;;;;;;6311577;22;20436;-91
2023/07/27 09:54:14;;;;;;;0.00;0.00;;;;;;;;;;6273662;22;20008;-88
2023/07/27 09:56:50;;;;;;;0.10;0.10;;;;;;;;;;6296916;22;20016;-89
2023/07/27 10:05:44;;;;;;;0.10;0.10;;;;;;;;;;6222710;22;20009;-90
2023/07/27 10:24:48;;;;;;;0.10;0.10;;;;;;;;;;6214143;22;20029;-89
2023/07/27 10:27:46;;;;;;;0.17;0.17;;;;;;;;;;6212311;22;20019;-90
2023/07/27 10:30:21;;;;;;;0.20;0.20;;;;;;;;;;6233056;23;20000;-91
2023/07/27 10:33:16;;;;;;;0.20;0.20;;;;;;;;;;6293754;22;20021;-91
2023/07/27 10:36:05;;;;;;;0.00;0.00;;;;;;;;;;6305701;22;20020;-92
2023/07/27 10:38:37;;;;;;;0.20;0.20;;;;;;;;;;6236886;23;20027;-91
2023/07/27 10:44:59;;;;;;;0.10;0.10;;;;;;;;;;6280229;22;20053;-90
2023/07/27 10:48:29;;;;;;;0.10;0.10;;;;;;;;;;6221537;22;20060;-90
2023/07/27 10:51:09;;;;;;;;;;;;;;;;;;;;;
2023/07/27 10:54:30;;;;;;;0.10;0.10;;;;;;;;;;6312500;22;20050;-89
2023/07/27 10:57:16;;;;;;;0.10;0.10;;;;;;;;;;6252564;22;20024;-90
2023/07/27 11:03:46;;;;;;;0.10;0.10;;;;;;;;;;6269699;22;20020;-90
2023/07/27 11:06:12;;;;;;;0.20;0.20;;;;;;;;;;6250564;22;20011;-90
2023/07/27 11:09:23;;;;;;;0.20;0.20;;;;;;;;;;6290670;22;20069;-92
2023/07/27 11:12:06;;;;;;;0.20;0.20;;;;;;;;;;6257283;22;20023;-89
2023/07/27 11:14:41;;;;;;;0.30;0.30;;;;;;;;;;6212304;23;20020;-89
2023/07/27 11:17:12;;;;;;;0.30;0.30;;;;;;;;;;6210940;22;20001;-89
2023/07/27 11:19:49;;;;;;;0.20;0.20;;;;;;;;;;6189313;23;20012;-91
2023/07/27 11:22:24;;;;;;;0.10;0.10;;;;;;;;;;6212279;23;20021;-89
2023/07/27 11:24:53;;;;;;;0.10;0.10;;;;;;;;;;6212369;22;20048;-88
2023/07/27 11:27:22;;;;;;;0.17;0.17;;;;;;;;;;6232448;23;20020;-90
2023/07/27 11:30:04;;;;;;;0.10;0.10;;;;;;;;;;6238289;22;20022;-89
2023/07/27 11:32:36;;;;;;;0.10;0.10;;;;;;;;;;6243990;22;20004;-89
2023/07/27 11:35:27;;;;;;;0.10;0.10;;;;;;;;;;6318631;22;20000;-90
2023/07/27 11:41:34;;;;;;;0.10;0.10;;;;;;;;;;6248566;22;20165;-90
2023/07/27 11:44:15;;;;;;;0.10;0.10;;;;;;;;;;6212223;22;20028;-90
2023/07/27 11:46:50;;;;;;;0.10;0.10;;;;;;;;;;6289444;22;20042;-91
2023/07/27 11:49:59;;;;;;;0.00;0.00;;;;;;;;;;6289642;22;20026;-90
2023/07/27 12:10:53;;;;;;;0.20;0.20;;;;;;;;;;6355223;22;20021;-88
2023/07/27 12:13:28;;;;;;;0.20;0.20;;;;;;;;;;6208730;22;20051;-87
2023/07/27 12:16:07;;;;;;;0.20;0.20;;;;;;;;;;6306458;22;20001;-91
2023/07/27 12:18:40;;;;;;;;;;;;;;;;;;6237950;23;19996;-93
2023/07/27 12:21:32;;;;;;;0.10;0.10;;;;;;;;;;6212522;23;19916;-90
2023/07/27 12:24:16;;;;;;;0.20;0.20;;;;;;;;;;6238723;22;20059;-92
2023/07/27 12:26:42;;;;;;;0.00;0.00;;;;;;;;;;6238388;23;20008;-92
2023/07/27 12:29:15;;;;;;;0.20;0.20;;;;;;;;;;6237167;22;20099;-91
2023/07/27 12:31:41;;;;;;;0.20;0.20;;;;;;;;;;6213106;22;20016;-91
2023/07/27 12:34:16;;;;;;;0.00;0.00;;;;;;;;;;6212850;23;20009;-91
2023/07/27 12:36:42;;;;;;;0.17;0.17;;;;;;;;;;6213410;23;20028;-92
2023/07/27 12:39:19;;;;;;;0.10;0.10;;;;;;;;;;6338504;22;20028;-91
2023/07/27 13:25:37;;;;;;;0.08;0.08;;;;;;;;;;6260440;22;20031;-90
2023/07/27 13:28:06;;;;;;;0.10;0.10;;;;;;;;;;6215306;22;20023;-89
2023/07/27 13:30:33;;;;;;;0.10;0.10;;;;;;;;;;6213724;22;20041;-90
2023/07/27 13:33:06;;;;;;;0.20;0.20;;;;;;;;;;6215360;22;20008;-90
2023/07/27 13:35:37;;;;;;;0.10;0.10;;;;;;;;;;6240693;23;20014;-88
2023/07/27 13:38:29;;;;;;;0.10;0.10;;;;;;;;;;6239763;22;20021;-90
2023/07/27 13:44:19;;;;;;;0.10;0.10;;;;;;;;;;6275065;23;20019;-90
2023/07/27 13:50:26;;;;;;;0.10;0.10;;;;;;;;;;6184785;23;19996;-90
2023/07/27 13:52:58;;;;;;;0.20;0.20;;;;;;;;;;6230268;23;20025;-89
2023/07/27 13:55:44;;;;;;;0.00;0.00;;;;;;;;;;6239745;23;20016;-91
2023/07/27 13:58:18;;;;;;;0.08;0.08;;;;;;;;;;6242130;22;20023;-90
2023/07/27 14:00:50;;;;;;;0.10;0.10;;;;;;;;;;6215165;22;20016;-90
2023/07/27 14:03:27;;;;;;;0.10;0.10;;;;;;;;;;6241422;22;20455;-90
2023/07/27 14:06:14;;;;;;;0.00;0.00;;;;;;;;;;6223270;23;20022;-90
2023/07/27 14:08:58;;;;;;;0.10;0.10;;;;;;;;;;6223499;23;19997;-88
2023/07/27 14:11:40;;;;;;;0.10;0.10;;;;;;;;;;6265068;22;20024;-90
2023/07/27 14:14:28;;;;;;;0.10;0.10;;;;;;;;;;6264597;23;20018;-89
2023/07/27 14:17:00;;;;;;;0.20;0.20;;;;;;;;;;6213961;22;20001;-90
2023/07/27 14:19:36;;;;;;;0.10;0.10;;;;;;;;;;6213843;22;20016;-90
2023/07/27 14:22:14;;;;;;;0.20;0.20;;;;;;;;;;6242889;23;20064;-88
2023/07/27 14:24:44;;;;;;;0.10;0.10;;;;;;;;;;6213790;22;20030;-89
2023/07/27 14:27:11;;;;;;;0.20;0.20;;;;;;;;;;6234278;22;20032;-89
2023/07/27 14:29:37;;;;;;;0.10;0.10;;;;;;;;;;6238136;23;20020;-87
2023/07/27 14:32:28;;;;;;;0.13;0.13;;;;;;;;;;6262119;23;20384;-88
2023/07/27 14:35:07;;;;;;;0.20;0.20;;;;;;;;;;6237479;22;20017;-88
2023/07/27 14:37:44;;;;;;;0.20;0.20;;;;;;;;;;6235989;23;20007;-88
2023/07/27 14:40:14;;;;;;;0.10;0.10;;;;;;;;;;6235884;23;20370;-88
2023/07/27 14:42:42;;;;;;;0.08;0.08;;;;;;;;;;6257864;23;20078;-88
2023/07/27 14:45:10;;;;;;;0.10;0.10;;;;;;;;;;6262258;22;20024;-87
2023/07/27 14:47:40;;;;;;;0.10;0.10;;;;;;;;;;6258839;23;20338;-87
2023/07/27 14:50:06;;;;;;;0.05;0.05;;;;;;;;;;6253521;23;20016;-86
2023/07/27 14:52:33;;;;;;;0.10;0.10;;;;;;;;;;6233775;22;20020;-89
2023/07/27 14:55:20;;;;;;;0.10;0.10;;;;;;;;;;6238628;23;20022;-89
2023/07/27 14:57:47;;;;;;;0.17;0.17;;;;;;;;;;6237325;23;20027;-90
2023/07/27 15:00:14;;;;;;;0.10;0.10;;;;;;;;;;6236131;23;20055;-88
2023/07/27 15:02:50;;;;;;;0.10;0.10;;;;;;;;;;6261485;23;20012;-87
2023/07/27 15:08:39;;;;;;;0.10;0.10;;;;;;;;;;6277556;23;20011;-88
2023/07/27 15:11:11;;;;;;;0.10;0.10;;;;;;;;;;6239896;23;20012;-86
2023/07/27 15:13:43;;;;;;;0.10;0.10;;;;;;;;;;6237428;22;20024;-87
2023/07/27 15:16:15;;;;;;;0.10;0.10;;;;;;;;;;6214211;23;20020;-87
2023/07/27 15:22:04;;;;;;;0.20;0.20;;;;;;;;;;6272514;23;20011;-87
2023/07/27 15:24:33;;;;;;;0.10;0.10;;;;;;;;;;6234215;23;20016;-88
2023/07/27 15:27:02;;;;;;;0.13;0.13;;;;;;;;;;6238379;22;20012;-87
2023/07/27 15:30:15;;;;;;;0.05;0.05;;;;;;;;;;6263794;22;20038;-87
2023/07/27 15:32:42;;;;;;;0.10;0.10;;;;;;;;;;6242009;23;20027;-87
2023/07/27 15:35:14;;;;;;;0.10;0.10;;;;;;;;;;6238730;22;20020;-88
2023/07/27 15:37:46;;;;;;;0.20;0.20;;;;;;;;;;6242205;22;20016;-87
2023/07/27 15:40:14;;;;;;;0.08;0.08;;;;;;;;;;6241499;23;20016;-86
2023/07/27 15:42:48;;;;;;;0.10;0.10;;;;;;;;;;6213693;23;20008;-89
2023/07/27 15:48:43;;;;;;;0.10;0.10;;;;;;;;;;6276691;23;20041;-89
2023/07/27 15:51:09;;;;;;;0.10;0.10;;;;;;;;;;6237065;23;20038;-89
2023/07/27 15:53:53;;;;;;;0.10;0.10;;;;;;;;;;6265332;23;20023;-88
2023/07/27 15:56:31;;;;;;;0.17;0.17;;;;;;;;;;6264758;23;20043;-90
2023/07/27 15:59:11;;;;;;;0.10;0.10;;;;;;;;;;6265369;23;20012;-89
2023/07/27 16:01:38;;;;;;;0.10;0.10;;;;;;;;;;6238496;23;20016;-90
2023/07/27 16:04:15;;;;;;;0.20;0.20;;;;;;;;;;6263660;23;20024;-89
2023/07/27 16:06:44;;;;;;;0.17;0.17;;;;;;;;;;6240820;22;20020;-89
2023/07/27 16:09:11;;;;;;;0.08;0.08;;;;;;;;;;6241047;22;20012;-90
2023/07/27 16:15:08;;;;;;;0.20;0.20;;;;;;;;;;6273855;23;20090;-88
2023/07/27 16:17:43;;;;;;;0.00;0.00;;;;;;;;;;6239169;23;20016;-89
2023/07/27 16:20:20;;;;;;;0.00;0.00;;;;;;;;;;6264456;23;20036;-88
2023/07/27 16:23:15;;;;;;;0.10;0.10;;;;;;;;;;6263547;23;20092;-89
2023/07/27 16:29:08;;;;;;;0.10;0.10;;;;;;;;;;6276164;22;20052;-88
2023/07/27 16:31:38;;;;;;;0.15;0.15;;;;;;;;;;6216295;22;20053;-92
2023/07/27 16:34:26;;;;;;;0.10;0.10;;;;;;;;;;6165130;22;20005;-94
2023/07/27 16:42:14;;;;;;;0.03;0.03;;;;;;;;;;6223238;22;20009;-92
2023/07/27 17:05:31;;;;;;;0.10;0.10;;;;;;;;;;6228128;22;20036;-94
2023/07/27 17:08:10;;;;;;;0.10;0.10;;;;;;;;;;6308831;22;20000;-93
2023/07/27 17:10:46;;;;;;;0.03;0.03;;;;;;;;;;6211936;23;20336;-91
2023/07/27 17:16:24;;;;;;;0.10;0.10;;;;;;;;;;6212479;22;20043;-89
2023/07/27 17:18:57;;;;;;;0.30;0.30;;;;;;;;;;6210802;22;20055;-91
2023/07/27 17:21:45;;;;;;;0.10;0.10;;;;;;;;;;6236361;22;20103;-91
2023/07/27 17:29:46;;;;;;;0.10;0.10;;;;;;;;;;6237035;22;20024;-94
2023/07/27 17:35:18;;;;;;;0.10;0.10;;;;;;;;;;6270051;22;20047;-92
2023/07/27 17:37:44;;;;;;;0.00;0.00;;;;;;;;;;6218045;23;20020;-92
2023/07/27 17:58:31;;;;;;;0.20;0.20;;;;;;;;;;6363281;22;20028;-91
2023/07/27 18:01:03;;;;;;;0.10;0.10;;;;;;;;;;6187052;23;20021;-90
2023/07/27 18:03:48;;;;;;;0.10;0.10;;;;;;;;;;6213945;22;20004;-91
2023/07/27 18:12:04;;;;;;;0.20;0.20;;;;;;;;;;6248329;22;19915;-92
2023/07/27 18:14:30;;;;;;;0.10;0.10;;;;;;;;;;6248392;22;20012;-94
2023/07/27 18:17:44;;;;;;;0.00;0.00;;;;;;;;;;6274263;22;20003;-94
2023/07/27 18:20:27;;;;;;;0.10;0.10;;;;;;;;;;6299602;22;20008;-92
2023/07/27 18:23:27;;;;;;;0.20;0.20;;;;;;;;;;6277628;22;20027;-94
2023/07/27 19:15:29;;;;;;;0.15;0.15;;;;;;;;;;6226918;22;20029;-89
2023/07/27 19:21:48;;;;;;;0.10;0.10;;;;;;;;;;6265678;22;20012;-89
2023/07/27 19:27:39;;;;;;;0.10;0.10;;;;;;;;;;6278230;22;20019;-90
2023/07/27 19:30:07;;;;;;;0.20;0.20;;;;;;;;;;6243589;22;20094;-91
2023/07/27 19:32:36;;;;;;;0.20;0.20;;;;;;;;;;6256554;22;20061;-89
2023/07/27 19:38:26;;;;;;;0.10;0.10;;;;;;;;;;6278355;23;20053;-90
2023/07/27 19:40:59;;;;;;;0.10;0.10;;;;;;;;;;6222360;22;20027;-88
2023/07/27 19:43:26;;;;;;;0.10;0.10;;;;;;;;;;6215271;22;20028;-88
2023/07/27 19:45:54;;;;;;;0.10;0.10;;;;;;;;;;6207208;23;20020;-87
2023/07/27 19:48:30;;;;;;;0.00;0.00;;;;;;;;;;6240791;23;20065;-88
2023/07/27 19:51:15;;;;;;;0.20;0.20;;;;;;;;;;6214441;22;20053;-88
2023/07/27 19:53:57;;;;;;;0.08;0.08;;;;;;;;;;6268157;23;20000;-88
2023/07/27 19:56:32;;;;;;;0.10;0.10;;;;;;;;;;6213700;22;20020;-90
2023/07/27 19:59:03;;;;;;;0.08;0.08;;;;;;;;;;6240292;23;20012;-87
2023/07/27 20:01:32;;;;;;;0.25;0.25;;;;;;;;;;6213061;23;20024;-86
2023/07/27 20:04:17;;;;;;;0.15;0.15;;;;;;;;;;6240981;22;20034;-90
2023/07/27 20:06:54;;;;;;;0.13;0.13;;;;;;;;;;6215117;23;20016;-88
2023/07/27 20:09:40;;;;;;;0.05;0.05;;;;;;;;;;6221905;22;20052;-87
2023/07/27 20:19:23;;;;;;;0.00;0.00;;;;;;;;;;6276796;22;20034;-87
2023/07/27 20:22:16;;;;;;;0.10;0.10;;;;;;;;;;6238436;22;20016;-87
2023/07/27 20:25:14;;;;;;;0.10;0.10;;;;;;;;;;6266325;22;20038;-89
2023/07/27 20:27:47;;;;;;;0.15;0.15;;;;;;;;;;6237783;23;20084;-86
2023/07/27 20:30:14;;;;;;;0.10;0.10;;;;;;;;;;6238323;23;20020;-86
2023/07/27 20:32:59;;;;;;;0.10;0.10;;;;;;;;;;6243178;23;20043;-86
2023/07/27 20:35:29;;;;;;;0.15;0.15;;;;;;;;;;6240155;23;20020;-87
2023/07/27 20:37:58;;;;;;;0.10;0.10;;;;;;;;;;6239539;23;20019;-90
2023/07/27 20:40:28;;;;;;;0.10;0.10;;;;;;;;;;6261951;22;20000;-91
2023/07/27 20:43:00;;;;;;;0.10;0.10;;;;;;;;;;6215395;23;20016;-89
2023/07/27 20:45:52;;;;;;;0.10;0.10;;;;;;;;;;6241150;23;20012;-89
2023/07/27 20:48:26;;;;;;;0.10;0.10;;;;;;;;;;6241415;22;20017;-87
2023/07/27 20:54:48;;;;;;;0.15;0.15;;;;;;;;;;6274966;23;20015;-88
2023/07/27 20:57:40;;;;;;;0.10;0.10;;;;;;;;;;6239278;23;20001;-88
2023/07/27 21:00:47;;;;;;;0.10;0.10;;;;;;;;;;6242788;22;19996;-90
2023/07/27 21:58:41;;;;;;;0.10;0.10;;;;;;;;;;6264817;22;20017;-86
2023/07/27 22:01:57;;;;;;;0.10;0.10;;;;;;;;;;6268303;22;20000;-87
2023/07/27 22:08:15;;;;;;;0.13;0.13;;;;;;;;;;6279306;22;20053;-88
2023/07/27 22:10:46;;;;;;;0.10;0.10;;;;;;;;;;6216830;22;20047;-87
2023/07/27 22:13:26;;;;;;;0.10;0.10;;;;;;;;;;6244386;22;20028;-87
2023/07/27 22:16:09;;;;;;;0.10;0.10;;;;;;;;;;6240481;22;20082;-88
2023/07/27 22:18:36;;;;;;;0.10;0.10;;;;;;;;;;6236908;23;20000;-86
2023/07/27 22:21:13;;;;;;;0.10;0.10;;;;;;;;;;6241966;22;20017;-86
2023/07/27 22:24:15;;;;;;;0.20;0.20;;;;;;;;;;6218317;22;20044;-89
2023/07/27 22:26:44;;;;;;;0.10;0.10;;;;;;;;;;6218330;22;20031;-87
2023/07/27 22:32:38;;;;;;;0.10;0.10;;;;;;;;;;6277967;22;20021;-89
2023/07/27 22:35:18;;;;;;;0.20;0.20;;;;;;;;;;6243000;22;20008;-88
2023/07/27 22:37:46;;;;;;;0.10;0.10;;;;;;;;;;6212307;22;19996;-89
2023/07/27 22:40:12;;;;;;;0.17;0.17;;;;;;;;;;6216941;22;20434;-87
2023/07/27 22:46:20;;;;;;;0.30;0.30;;;;;;;;;;6265552;23;20020;-91
2023/07/27 22:49:24;;;;;;;0.10;0.10;;;;;;;;;;6246407;22;20068;-90
2023/07/27 22:52:04;;;;;;;0.10;0.10;;;;;;;;;;6240593;22;20029;-88
2023/07/27 22:57:49;;;;;;;0.00;0.00;;;;;;;;;;6311345;22;20023;-90
2023/07/27 23:00:35;;;;;;;0.10;0.10;;;;;;;;;;6281889;22;20002;-93
2023/07/27 23:24:21;;;;;;;0.17;0.17;;;;;;;;;;6246177;22;19921;-86
2023/07/27 23:26:52;;;;;;;0.10;0.10;;;;;;;;;;6242289;23;20008;-87
2023/07/27 23:29:21;;;;;;;0.10;0.10;;;;;;;;;;6241004;23;20051;-88
2023/07/27 23:32:00;;;;;;;0.00;0.00;;;;;;;;;;6217471;23;20011;-89
2023/07/27 23:37:51;;;;;;;0.10;0.10;;;;;;;;;;6269505;22;20036;-89
2023/07/27 23:40:24;;;;;;;0.20;0.20;;;;;;;;;;6217801;23;20024;-87
2023/07/27 23:42:52;;;;;;;0.20;0.20;;;;;;;;;;6241032;22;20020;-88
2023/07/27 23:45:22;;;;;;;0.10;0.10;;;;;;;;;;6218599;22;20031;-86
2023/07/27 23:48:03;;;;;;;0.10;0.10;;;;;;;;;;6243708;22;20000;-87
2023/07/27 23:53:32;;;;;;;0.22;0.22;;;;;;;;;;6242975;23;20020;-87
2023/07/27 23:56:38;;;;;;;0.10;0.10;;;;;;;;;;6249999;23;20027;-87
2023/07/27 23:59:39;;;;;;;0.15;0.15;;;;;;;;;;6241251;23;20012;-89
